Time;durP1;ratioP1;P1;durP2;ratioP2;P2;SDS_P1;SDS_P2;PMS_P1;PMS_P2;Temp;Humidity;BMP_temperature;BMP_pressure;BME280_temperature;BME280_humidity;BME280_pressure;Samples;Min_cycle;Max_cycle;Signal;HPM_P1;HPM_P2
2021/06/16 00:00:17;;;;;;;3.70;3.40;;;;;;;;;;5072953;28;20429;-69
2021/06/16 00:02:43;;;;;;;3.43;3.13;;;;;;;;;;5074859;28;20501;-68
2021/06/16 00:08:13;;;;;;;3.40;3.13;;;;;;;;;;5074248;28;20495;-69
2021/06/16 00:10:39;;;;;;;4.40;2.93;;;;;;;;;;5074302;28;20410;-67
2021/06/16 00:13:05;;;;;;;5.53;4.17;;;;;;;;;;5074379;28;20422;-68
2021/06/16 00:15:32;;;;;;;2.80;2.60;;;;;;;;;;5074230;28;20418;-68
2021/06/16 00:17:58;;;;;;;3.70;2.93;;;;;;;;;;5074087;28;20418;-68
2021/06/16 00:20:25;;;;;;;3.47;3.17;;;;;;;;;;5073916;28;20425;-68
2021/06/16 00:22:51;;;;;;;7.37;2.93;;;;;;;;;;5073973;28;20467;-68
2021/06/16 00:25:17;;;;;;;3.60;2.87;;;;;;;;;;5074055;28;20418;-69
2021/06/16 00:27:43;;;;;;;3.70;3.40;;;;;;;;;;5074120;28;20466;-68
2021/06/16 00:30:10;;;;;;;8.00;2.60;;;;;;;;;;5073937;28;20402;-67
2021/06/16 00:32:36;;;;;;;4.27;3.90;;;;;;;;;;5073883;28;20421;-68
2021/06/16 00:38:06;;;;;;;3.93;3.57;;;;;;;;;;5073137;28;20417;-68
2021/06/16 00:40:32;;;;;;;3.80;3.50;;;;;;;;;;5073817;28;20410;-68
2021/06/16 00:43:00;;;;;;;4.30;3.97;;;;;;;;;;5073812;28;20446;-68
2021/06/16 00:45:26;;;;;;;8.30;4.03;;;;;;;;;;5073656;28;20792;-67
2021/06/16 00:47:56;;;;;;;8.73;3.90;;;;;;;;;;5074294;28;20461;-73
2021/06/16 00:53:25;;;;;;;4.00;3.70;;;;;;;;;;5073291;28;20848;-67
2021/06/16 00:55:51;;;;;;;4.57;4.17;;;;;;;;;;5071976;28;20445;-69
2021/06/16 00:58:17;;;;;;;6.10;3.80;;;;;;;;;;5073770;28;20414;-68
2021/06/16 01:00:46;;;;;;;6.43;3.70;;;;;;;;;;5074285;28;20414;-68
2021/06/16 01:03:14;;;;;;;5.60;3.60;;;;;;;;;;5074104;28;20406;-67
2021/06/16 01:06:00;;;;;;;4.30;4.00;;;;;;;;;;5073977;28;20449;-67
2021/06/16 01:08:28;;;;;;;4.27;3.90;;;;;;;;;;5082936;28;20449;-68
2021/06/16 01:10:55;;;;;;;4.73;4.23;;;;;;;;;;5074063;28;20418;-67
2021/06/16 01:13:41;;;;;;;5.03;4.50;;;;;;;;;;5073990;28;20422;-67
2021/06/16 01:16:10;;;;;;;7.90;5.40;;;;;;;;;;5073471;28;20422;-70
2021/06/16 01:18:45;;;;;;;9.67;4.93;;;;;;;;;;5073557;28;20892;-69
2021/06/16 01:21:12;;;;;;;9.63;4.73;;;;;;;;;;5073785;28;20432;-68
2021/06/16 01:23:53;;;;;;;6.87;5.53;;;;;;;;;;5073629;28;20815;-67
2021/06/16 01:26:21;;;;;;;6.17;4.80;;;;;;;;;;5072684;28;20853;-68
2021/06/16 01:28:47;;;;;;;6.80;5.73;;;;;;;;;;5073740;28;20414;-67
2021/06/16 01:31:15;;;;;;;6.30;5.70;;;;;;;;;;5074319;28;20912;-68
2021/06/16 01:33:42;;;;;;;7.10;5.00;;;;;;;;;;5073856;28;20475;-68
2021/06/16 01:36:09;;;;;;;12.43;5.30;;;;;;;;;;5073745;28;20476;-67
2021/06/16 01:38:35;;;;;;;6.17;5.37;;;;;;;;;;5073924;28;20493;-67
2021/06/16 01:41:02;;;;;;;6.17;5.20;;;;;;;;;;5073758;28;20411;-68
2021/06/16 01:43:29;;;;;;;7.60;5.50;;;;;;;;;;5071792;28;20498;-68
2021/06/16 01:45:56;;;;;;;5.03;4.53;;;;;;;;;;5072577;28;20839;-69
2021/06/16 01:48:22;;;;;;;5.80;4.77;;;;;;;;;;5072580;28;20422;-69
2021/06/16 01:53:53;;;;;;;4.83;4.40;;;;;;;;;;5072511;28;20445;-68
2021/06/16 01:56:20;;;;;;;4.67;4.27;;;;;;;;;;5070353;28;20418;-69
2021/06/16 01:58:47;;;;;;;5.40;4.00;;;;;;;;;;5072467;28;20411;-67
2021/06/16 02:01:14;;;;;;;10.77;5.10;;;;;;;;;;5072426;28;20509;-68
2021/06/16 02:03:40;;;;;;;9.77;6.57;;;;;;;;;;5072248;28;20425;-67
2021/06/16 02:06:06;;;;;;;7.63;5.20;;;;;;;;;;5072221;28;20457;-68
2021/06/16 02:08:33;;;;;;;5.30;4.90;;;;;;;;;;5072039;28;20780;-69
2021/06/16 02:11:00;;;;;;;5.17;4.07;;;;;;;;;;5072287;28;20410;-68
2021/06/16 02:13:29;;;;;;;6.53;5.07;;;;;;;;;;5072022;28;20892;-67
2021/06/16 02:15:56;;;;;;;5.97;5.40;;;;;;;;;;5072201;28;20757;-68
2021/06/16 02:24:32;;;;;;;10.63;4.70;;;;;;;;;;5071976;28;20456;-68
2021/06/16 02:26:58;;;;;;;4.23;3.83;;;;;;;;;;5071135;28;20841;-68
2021/06/16 02:29:26;;;;;;;6.73;4.43;;;;;;;;;;5071972;28;20433;-68
2021/06/16 02:31:52;;;;;;;3.90;3.50;;;;;;;;;;5072116;28;20783;-68
2021/06/16 02:34:18;;;;;;;5.10;3.60;;;;;;;;;;5071381;28;20429;-68
2021/06/16 02:36:45;;;;;;;4.93;4.30;;;;;;;;;;5071600;28;20539;-70
2021/06/16 02:39:13;;;;;;;6.57;4.30;;;;;;;;;;5071400;28;20425;-68
2021/06/16 02:41:40;;;;;;;4.03;3.63;;;;;;;;;;5069558;28;20402;-69
2021/06/16 02:44:06;;;;;;;5.73;3.97;;;;;;;;;;5071805;28;20414;-67
2021/06/16 02:46:34;;;;;;;5.07;4.47;;;;;;;;;;5070245;28;20596;-68
2021/06/16 02:49:00;;;;;;;8.97;4.00;;;;;;;;;;5071644;28;20415;-68
2021/06/16 02:54:31;;;;;;;5.20;4.00;;;;;;;;;;5071809;28;20809;-67
2021/06/16 02:56:58;;;;;;;4.27;3.87;;;;;;;;;;5071946;28;20414;-68
2021/06/16 02:59:26;;;;;;;4.53;4.17;;;;;;;;;;5071537;28;20402;-68
2021/06/16 03:01:52;;;;;;;5.07;3.87;;;;;;;;;;5071695;28;20499;-69
2021/06/16 03:04:20;;;;;;;6.10;4.70;;;;;;;;;;5071570;28;20413;-68
2021/06/16 03:06:46;;;;;;;5.50;4.43;;;;;;;;;;5072068;28;20465;-69
2021/06/16 03:09:12;;;;;;;5.23;4.60;;;;;;;;;;5075861;28;20410;-68
2021/06/16 03:11:39;;;;;;;4.70;4.13;;;;;;;;;;5075364;28;20418;-67
2021/06/16 03:14:05;;;;;;;4.40;4.00;;;;;;;;;;5075477;28;20413;-68
2021/06/16 03:16:32;;;;;;;7.70;4.03;;;;;;;;;;5075372;28;20406;-68
2021/06/16 03:18:59;;;;;;;4.47;4.07;;;;;;;;;;5075257;28;20467;-67
2021/06/16 03:24:28;;;;;;;4.40;4.00;;;;;;;;;;5075267;28;20442;-67
2021/06/16 03:26:54;;;;;;;4.87;4.00;;;;;;;;;;5075188;28;20453;-68
2021/06/16 03:29:21;;;;;;;6.50;3.90;;;;;;;;;;5075129;28;20506;-68
2021/06/16 03:31:48;;;;;;;5.93;3.93;;;;;;;;;;5075040;28;20497;-69
2021/06/16 03:34:14;;;;;;;4.70;4.00;;;;;;;;;;5075150;28;20425;-68
2021/06/16 03:39:44;;;;;;;4.80;4.40;;;;;;;;;;5074903;28;20417;-69
2021/06/16 03:42:11;;;;;;;5.60;4.23;;;;;;;;;;5074849;28;20865;-68
2021/06/16 03:44:37;;;;;;;4.03;3.63;;;;;;;;;;5074841;28;20864;-68
2021/06/16 03:47:03;;;;;;;4.27;3.97;;;;;;;;;;5074626;28;20480;-71
2021/06/16 03:55:19;;;;;;;4.23;3.83;;;;;;;;;;5074442;28;20911;-67
2021/06/16 03:57:45;;;;;;;4.93;4.37;;;;;;;;;;5074674;28;20926;-69
2021/06/16 04:00:12;;;;;;;5.13;4.47;;;;;;;;;;5073260;28;20418;-68
2021/06/16 04:02:38;;;;;;;4.80;4.40;;;;;;;;;;5074615;28;20471;-69
2021/06/16 04:05:05;;;;;;;5.23;3.80;;;;;;;;;;5074469;28;20418;-68
2021/06/16 04:07:31;;;;;;;5.23;4.20;;;;;;;;;;5074348;28;20457;-68
2021/06/16 04:09:57;;;;;;;6.80;4.30;;;;;;;;;;5074562;28;20450;-68
2021/06/16 04:12:24;;;;;;;5.00;4.00;;;;;;;;;;5074434;28;20417;-68
2021/06/16 04:14:50;;;;;;;6.20;4.83;;;;;;;;;;5073014;28;20426;-68
2021/06/16 04:17:20;;;;;;;10.30;4.30;;;;;;;;;;5074343;28;20442;-67
2021/06/16 04:19:46;;;;;;;6.33;4.80;;;;;;;;;;5073114;28;20465;-69
2021/06/16 04:22:12;;;;;;;5.93;4.97;;;;;;;;;;5074348;28;20467;-67
2021/06/16 04:24:38;;;;;;;5.73;5.23;;;;;;;;;;5073097;28;20792;-68
2021/06/16 04:27:04;;;;;;;5.73;5.30;;;;;;;;;;5075081;28;20984;-68
2021/06/16 04:29:30;;;;;;;6.37;5.73;;;;;;;;;;5074327;28;20427;-68
2021/06/16 04:31:57;;;;;;;7.40;5.30;;;;;;;;;;5074388;28;20426;-67
2021/06/16 04:34:23;;;;;;;5.60;5.07;;;;;;;;;;5073895;28;20417;-68
2021/06/16 04:39:53;;;;;;;6.67;4.97;;;;;;;;;;5074050;28;20524;-70
2021/06/16 04:42:19;;;;;;;7.83;5.30;;;;;;;;;;5074128;28;20445;-68
2021/06/16 04:44:45;;;;;;;8.60;5.37;;;;;;;;;;5073742;28;20805;-68
2021/06/16 04:47:11;;;;;;;15.50;5.73;;;;;;;;;;5073692;28;20842;-68
2021/06/16 04:49:37;;;;;;;6.10;5.20;;;;;;;;;;5073714;28;20410;-68
2021/06/16 04:55:07;;;;;;;6.67;5.10;;;;;;;;;;5073612;28;20405;-67
2021/06/16 04:57:33;;;;;;;5.40;4.90;;;;;;;;;;5073736;28;20402;-69
2021/06/16 05:00:00;;;;;;;4.93;4.43;;;;;;;;;;5073533;28;20402;-68
2021/06/16 05:02:26;;;;;;;6.27;5.13;;;;;;;;;;5073550;28;20412;-67
2021/06/16 05:04:52;;;;;;;7.43;5.40;;;;;;;;;;5073395;28;20445;-68
2021/06/16 05:10:21;;;;;;;5.70;4.40;;;;;;;;;;5073416;28;20436;-68
2021/06/16 05:12:47;;;;;;;7.33;4.83;;;;;;;;;;5073412;28;20416;-67
2021/06/16 05:15:14;;;;;;;8.50;4.57;;;;;;;;;;5071984;28;20460;-67
2021/06/16 05:17:40;;;;;;;9.13;4.97;;;;;;;;;;5072559;28;20418;-69
2021/06/16 05:20:07;;;;;;;4.53;3.93;;;;;;;;;;5073055;28;20464;-67
2021/06/16 05:22:33;;;;;;;5.53;4.03;;;;;;;;;;5073110;28;20410;-68
2021/06/16 05:25:01;;;;;;;8.53;4.17;;;;;;;;;;5073056;28;20433;-69
2021/06/16 05:27:27;;;;;;;4.60;4.20;;;;;;;;;;5072936;28;20480;-68
2021/06/16 05:29:53;;;;;;;5.13;3.90;;;;;;;;;;5071233;28;20783;-69
2021/06/16 05:32:20;;;;;;;8.77;4.00;;;;;;;;;;5070411;28;20811;-69
2021/06/16 05:34:46;;;;;;;5.20;3.93;;;;;;;;;;5069943;28;20552;-68
2021/06/16 05:40:16;;;;;;;5.40;3.90;;;;;;;;;;5071463;28;20413;-68
2021/06/16 05:42:42;;;;;;;4.10;3.70;;;;;;;;;;5071658;28;20405;-68
2021/06/16 05:45:08;;;;;;;4.00;3.30;;;;;;;;;;5071133;28;20861;-67
2021/06/16 05:47:34;;;;;;;3.93;3.53;;;;;;;;;;5071626;28;20572;-69
2021/06/16 05:50:00;;;;;;;5.30;2.83;;;;;;;;;;5072061;28;20449;-68
2021/06/16 05:55:30;;;;;;;8.20;3.50;;;;;;;;;;5071612;28;20813;-68
2021/06/16 05:57:56;;;;;;;4.47;3.40;;;;;;;;;;5069940;28;20426;-68
2021/06/16 06:00:23;;;;;;;5.73;3.17;;;;;;;;;;5072414;28;20494;-69
2021/06/16 06:02:49;;;;;;;3.47;3.17;;;;;;;;;;5072539;28;20406;-68
2021/06/16 06:05:15;;;;;;;5.50;3.30;;;;;;;;;;5072020;28;20760;-68
2021/06/16 06:10:45;;;;;;;4.40;3.20;;;;;;;;;;5072167;28;20436;-67
2021/06/16 06:13:11;;;;;;;4.30;3.07;;;;;;;;;;5071170;28;20818;-67
2021/06/16 06:15:37;;;;;;;3.80;3.47;;;;;;;;;;5071994;28;20513;-68
2021/06/16 06:18:03;;;;;;;4.53;3.00;;;;;;;;;;5072044;28;20517;-68
2021/06/16 06:20:29;;;;;;;5.43;4.00;;;;;;;;;;5071796;28;20417;-67
2021/06/16 06:25:58;;;;;;;5.57;3.67;;;;;;;;;;5071867;28;20417;-69
2021/06/16 06:28:24;;;;;;;3.33;3.03;;;;;;;;;;5071824;28;20509;-68
2021/06/16 06:30:50;;;;;;;3.53;3.30;;;;;;;;;;5071810;28;20472;-68
2021/06/16 06:33:16;;;;;;;3.63;3.33;;;;;;;;;;5070406;28;20440;-68
2021/06/16 06:35:42;;;;;;;3.43;3.23;;;;;;;;;;5069969;28;20477;-69
2021/06/16 06:41:12;;;;;;;7.00;3.40;;;;;;;;;;5070992;28;20484;-68
2021/06/16 06:43:40;;;;;;;5.53;3.00;;;;;;;;;;5071242;28;20422;-68
2021/06/16 06:46:06;;;;;;;4.73;3.30;;;;;;;;;;5071322;28;20410;-68
2021/06/16 06:48:32;;;;;;;7.13;3.50;;;;;;;;;;5071423;28;20511;-68
2021/06/16 06:50:58;;;;;;;4.03;3.37;;;;;;;;;;5069762;28;20920;-68
2021/06/16 06:53:25;;;;;;;4.07;3.47;;;;;;;;;;5071222;28;20418;-68
2021/06/16 06:55:51;;;;;;;7.23;3.20;;;;;;;;;;5071600;28;20422;-68
2021/06/16 06:58:17;;;;;;;3.80;3.10;;;;;;;;;;5071123;28;20451;-67
2021/06/16 07:00:43;;;;;;;4.57;4.03;;;;;;;;;;5071335;28;20485;-68
2021/06/16 07:03:09;;;;;;;3.60;3.30;;;;;;;;;;5070089;28;20465;-68
2021/06/16 07:05:35;;;;;;;7.03;3.20;;;;;;;;;;5070281;28;20434;-68
2021/06/16 07:11:05;;;;;;;7.80;3.23;;;;;;;;;;5071128;28;20832;-70
2021/06/16 07:13:31;;;;;;;3.50;3.20;;;;;;;;;;5071165;28;20438;-71
2021/06/16 07:15:57;;;;;;;3.83;3.10;;;;;;;;;;5071254;28;20493;-70
2021/06/16 07:18:23;;;;;;;3.73;2.90;;;;;;;;;;5070850;28;20402;-71
2021/06/16 07:20:49;;;;;;;5.80;3.87;;;;;;;;;;5070640;28;20448;-73
2021/06/16 07:26:19;;;;;;;5.50;3.00;;;;;;;;;;5070823;28;20963;-70
2021/06/16 07:28:45;;;;;;;4.67;3.63;;;;;;;;;;5070832;28;20525;-71
2021/06/16 07:31:10;;;;;;;3.30;3.00;;;;;;;;;;5071008;28;20871;-68
2021/06/16 07:33:36;;;;;;;3.80;3.17;;;;;;;;;;5069445;28;20471;-68
2021/06/16 07:36:03;;;;;;;3.77;3.40;;;;;;;;;;5070828;28;20967;-71
2021/06/16 07:41:33;;;;;;;4.50;3.07;;;;;;;;;;5069236;28;20514;-70
2021/06/16 07:44:02;;;;;;;4.20;3.30;;;;;;;;;;5069231;28;20457;-68
2021/06/16 07:46:28;;;;;;;3.20;2.90;;;;;;;;;;5069935;28;20446;-67
2021/06/16 07:48:54;;;;;;;4.60;3.60;;;;;;;;;;5069642;28;20445;-70
2021/06/16 07:51:23;;;;;;;3.33;2.87;;;;;;;;;;5069805;28;20517;-71
2021/06/16 07:53:49;;;;;;;6.33;3.53;;;;;;;;;;5070326;28;20438;-73
2021/06/16 07:56:15;;;;;;;5.70;3.67;;;;;;;;;;5073171;28;20487;-68
2021/06/16 07:58:42;;;;;;;3.83;3.53;;;;;;;;;;5071821;28;20499;-69
2021/06/16 08:01:08;;;;;;;6.83;3.37;;;;;;;;;;5072921;28;20827;-75
2021/06/16 08:03:34;;;;;;;6.90;3.27;;;;;;;;;;5072739;28;20501;-79
2021/06/16 08:06:00;;;;;;;4.73;3.40;;;;;;;;;;5071902;28;20483;-79
2021/06/16 08:11:29;;;;;;;5.10;3.13;;;;;;;;;;5072783;28;20517;-79
2021/06/16 08:13:55;;;;;;;4.77;3.37;;;;;;;;;;5072132;28;20910;-75
2021/06/16 08:16:22;;;;;;;3.60;3.30;;;;;;;;;;5072917;28;20417;-78
2021/06/16 08:18:49;;;;;;;7.93;3.50;;;;;;;;;;5072624;28;20855;-79
2021/06/16 08:21:16;;;;;;;4.97;3.63;;;;;;;;;;5072956;28;20414;-78
2021/06/16 08:26:45;;;;;;;3.53;3.23;;;;;;;;;;5072266;28;20457;-79
2021/06/16 08:29:20;;;;;;;4.60;3.50;;;;;;;;;;5070999;28;20430;-78
2021/06/16 08:31:46;;;;;;;3.37;2.93;;;;;;;;;;5071834;28;20461;-80
2021/06/16 08:34:12;;;;;;;3.10;2.90;;;;;;;;;;5072194;28;20426;-75
2021/06/16 08:36:41;;;;;;;4.00;3.30;;;;;;;;;;5072527;28;20493;-73
2021/06/16 08:42:10;;;;;;;3.30;3.10;;;;;;;;;;5072348;28;20459;-80
2021/06/16 08:44:37;;;;;;;3.53;3.23;;;;;;;;;;5072190;28;20779;-74
2021/06/16 08:47:04;;;;;;;4.03;2.83;;;;;;;;;;5071779;28;20872;-76
2021/06/16 08:49:30;;;;;;;3.57;2.80;;;;;;;;;;5071246;28;20455;-76
2021/06/16 08:51:57;;;;;;;3.27;2.63;;;;;;;;;;5072809;28;20418;-79
2021/06/16 08:54:23;;;;;;;3.10;2.87;;;;;;;;;;5072890;28;20453;-78
2021/06/16 08:56:52;;;;;;;3.10;2.80;;;;;;;;;;5071694;28;20454;-77
2021/06/16 08:59:18;;;;;;;2.83;2.60;;;;;;;;;;5073126;28;20903;-78
2021/06/16 09:01:47;;;;;;;4.43;2.83;;;;;;;;;;5072641;28;20463;-72
2021/06/16 09:04:33;;;;;;;3.67;2.50;;;;;;;;;;5071919;28;20763;-74
2021/06/16 09:07:07;;;;;;;3.70;3.30;;;;;;;;;;5072660;28;20481;-77
2021/06/16 09:09:33;;;;;;;5.33;3.20;;;;;;;;;;5072530;28;20923;-77
2021/06/16 09:12:02;;;;;;;3.50;3.20;;;;;;;;;;5072965;28;20909;-81
2021/06/16 09:14:28;;;;;;;5.20;3.20;;;;;;;;;;5072882;28;20414;-80
2021/06/16 09:16:54;;;;;;;7.23;3.00;;;;;;;;;;5073278;28;20420;-79
2021/06/16 09:19:21;;;;;;;4.07;3.37;;;;;;;;;;5074255;28;20437;-81
2021/06/16 09:21:49;;;;;;;4.70;3.63;;;;;;;;;;5071717;28;20516;-79
2021/06/16 09:27:38;;;;;;;3.90;3.30;;;;;;;;;;5072454;28;20471;-81
2021/06/16 09:30:30;;;;;;;5.87;3.20;;;;;;;;;;5071045;28;20429;-79
2021/06/16 09:32:58;;;;;;;3.70;3.20;;;;;;;;;;5072156;28;20489;-77
2021/06/16 09:35:26;;;;;;;3.93;3.17;;;;;;;;;;5072368;28;20474;-79
2021/06/16 09:37:52;;;;;;;6.13;3.93;;;;;;;;;;5072454;28;20515;-82
2021/06/16 09:40:29;;;;;;;6.60;2.70;;;;;;;;;;5072323;28;20689;-81
2021/06/16 09:43:00;;;;;;;4.63;3.40;;;;;;;;;;5072860;28;20781;-80
2021/06/16 09:45:26;;;;;;;5.00;3.43;;;;;;;;;;5073904;28;20422;-83
2021/06/16 09:47:52;;;;;;;3.40;3.20;;;;;;;;;;5072307;28;20497;-82
2021/06/16 09:50:28;;;;;;;5.00;3.13;;;;;;;;;;5071996;28;20501;-79
2021/06/16 09:52:54;;;;;;;4.37;3.23;;;;;;;;;;5072586;28;20764;-81
2021/06/16 09:55:28;;;;;;;5.50;3.20;;;;;;;;;;5071504;28;20440;-83
2021/06/16 09:57:59;;;;;;;3.60;3.30;;;;;;;;;;5070930;28;20454;-80
2021/06/16 10:00:30;;;;;;;3.60;2.73;;;;;;;;;;5071539;28;20442;-81
2021/06/16 10:03:16;;;;;;;5.33;3.33;;;;;;;;;;5071980;28;20479;-82
2021/06/16 10:06:15;;;;;;;3.03;2.73;;;;;;;;;;5071465;28;20450;-80
2021/06/16 10:08:44;;;;;;;3.30;3.00;;;;;;;;;;5081482;28;20557;-79
2021/06/16 10:11:14;;;;;;;4.13;3.40;;;;;;;;;;5070321;28;20428;-77
2021/06/16 10:13:41;;;;;;;3.43;3.10;;;;;;;;;;5071558;28;20437;-78
2021/06/16 10:16:07;;;;;;;3.20;3.00;;;;;;;;;;5070786;28;20407;-79
2021/06/16 10:18:38;;;;;;;3.73;3.43;;;;;;;;;;5071114;28;20433;-72
2021/06/16 10:21:05;;;;;;;7.50;3.20;;;;;;;;;;5071559;28;20406;-78
2021/06/16 10:23:31;;;;;;;3.70;3.10;;;;;;;;;;5071123;28;20716;-74
2021/06/16 10:26:17;;;;;;;3.77;3.00;;;;;;;;;;5071012;28;20410;-75
2021/06/16 10:28:50;;;;;;;5.10;3.00;;;;;;;;;;5073908;28;20514;-78
2021/06/16 10:31:17;;;;;;;6.10;3.83;;;;;;;;;;5071292;28;20551;-78
2021/06/16 10:33:43;;;;;;;4.27;3.87;;;;;;;;;;5069670;28;20433;-76
2021/06/16 10:36:11;;;;;;;6.73;3.73;;;;;;;;;;5070409;28;20465;-78
2021/06/16 10:38:38;;;;;;;3.87;3.47;;;;;;;;;;5070498;28;20425;-79
2021/06/16 10:41:04;;;;;;;4.27;3.93;;;;;;;;;;5070896;28;20428;-81
2021/06/16 10:43:34;;;;;;;4.80;3.00;;;;;;;;;;5070388;28;20421;-78
2021/06/16 10:46:01;;;;;;;4.13;3.10;;;;;;;;;;5070234;28;20437;-78
2021/06/16 10:48:45;;;;;;;4.87;3.13;;;;;;;;;;5070661;28;20474;-78
2021/06/16 10:51:24;;;;;;;4.50;3.70;;;;;;;;;;5071031;28;20737;-77
2021/06/16 10:54:09;;;;;;;3.70;3.40;;;;;;;;;;5070441;28;20424;-78
2021/06/16 10:56:45;;;;;;;4.57;3.33;;;;;;;;;;5069418;28;20543;-77
2021/06/16 10:59:12;;;;;;;4.20;3.80;;;;;;;;;;5070620;28;20534;-79
2021/06/16 11:01:48;;;;;;;9.57;4.03;;;;;;;;;;5069278;28;20437;-78
2021/06/16 11:04:32;;;;;;;6.20;3.13;;;;;;;;;;5070949;28;20504;-77
2021/06/16 11:06:58;;;;;;;3.10;2.80;;;;;;;;;;5071051;28;20620;-80
2021/06/16 11:10:00;;;;;;;3.80;3.40;;;;;;;;;;5071008;28;20409;-77
2021/06/16 11:12:30;;;;;;;7.93;3.30;;;;;;;;;;5088527;28;20433;-78
2021/06/16 11:14:57;;;;;;;5.37;3.40;;;;;;;;;;5073732;28;20437;-78
2021/06/16 11:17:35;;;;;;;3.70;3.40;;;;;;;;;;5070541;28;20422;-76
2021/06/16 11:20:02;;;;;;;3.67;2.63;;;;;;;;;;5070797;28;20508;-77
2021/06/16 11:22:28;;;;;;;5.60;3.50;;;;;;;;;;5070966;28;20410;-78
2021/06/16 11:25:00;;;;;;;4.50;3.40;;;;;;;;;;5069480;28;20449;-79
2021/06/16 11:27:45;;;;;;;3.57;3.37;;;;;;;;;;5070425;28;20469;-80
2021/06/16 11:30:14;;;;;;;5.13;3.37;;;;;;;;;;5074999;28;20414;-83
2021/06/16 11:32:40;;;;;;;7.43;3.70;;;;;;;;;;5070683;28;20870;-79
2021/06/16 11:35:06;;;;;;;3.70;3.40;;;;;;;;;;5072010;28;20473;-79
2021/06/16 11:37:51;;;;;;;5.13;3.27;;;;;;;;;;5073607;28;20459;-78
2021/06/16 11:40:18;;;;;;;4.03;3.70;;;;;;;;;;5074309;28;20406;-79
2021/06/16 11:42:44;;;;;;;4.87;3.63;;;;;;;;;;5074236;28;20417;-80
2021/06/16 11:45:10;;;;;;;3.80;3.47;;;;;;;;;;5073279;28;21007;-78
2021/06/16 11:47:36;;;;;;;3.10;2.80;;;;;;;;;;5073969;28;20457;-78
2021/06/16 11:50:07;;;;;;;4.00;3.20;;;;;;;;;;5074303;28;20414;-79
2021/06/16 11:52:33;;;;;;;7.00;3.00;;;;;;;;;;5074148;28;20416;-81
2021/06/16 11:54:59;;;;;;;3.50;3.20;;;;;;;;;;5072273;28;20426;-79
2021/06/16 11:57:30;;;;;;;4.73;3.87;;;;;;;;;;5073967;28;20440;-83
2021/06/16 11:59:56;;;;;;;4.27;3.87;;;;;;;;;;5074139;28;20852;-80
2021/06/16 12:02:23;;;;;;;3.43;3.13;;;;;;;;;;5072770;28;20912;-78
2021/06/16 12:04:58;;;;;;;4.13;3.30;;;;;;;;;;5074014;28;20421;-80
2021/06/16 12:07:27;;;;;;;3.83;3.53;;;;;;;;;;5074326;28;20481;-79
2021/06/16 12:09:55;;;;;;;4.07;3.77;;;;;;;;;;5075791;28;20417;-74
2021/06/16 12:12:21;;;;;;;3.70;3.40;;;;;;;;;;5073740;28;20414;-81
2021/06/16 12:14:47;;;;;;;4.10;3.43;;;;;;;;;;5073282;28;20417;-80
2021/06/16 12:17:13;;;;;;;3.70;3.40;;;;;;;;;;5073720;28;20414;-78
2021/06/16 12:19:40;;;;;;;3.20;2.80;;;;;;;;;;5074056;28;20446;-78
2021/06/16 12:22:10;;;;;;;3.73;3.40;;;;;;;;;;5073216;28;20441;-77
2021/06/16 12:24:41;;;;;;;3.57;3.27;;;;;;;;;;5073529;28;20410;-80
2021/06/16 12:27:14;;;;;;;4.50;3.30;;;;;;;;;;5073653;28;20480;-83
2021/06/16 12:29:49;;;;;;;5.10;3.77;;;;;;;;;;5071516;28;20422;-79
2021/06/16 12:32:27;;;;;;;3.27;2.97;;;;;;;;;;5071734;28;20429;-78
2021/06/16 12:35:07;;;;;;;6.27;3.60;;;;;;;;;;5072689;28;20462;-74
2021/06/16 12:37:33;;;;;;;5.03;3.60;;;;;;;;;;5072527;28;20488;-78
2021/06/16 12:40:01;;;;;;;3.33;3.10;;;;;;;;;;5054029;28;20458;-78
2021/06/16 12:42:37;;;;;;;4.63;3.30;;;;;;;;;;5073006;28;20463;-79
2021/06/16 12:45:03;;;;;;;3.73;3.43;;;;;;;;;;5071779;28;20434;-80
2021/06/16 12:47:33;;;;;;;3.47;3.03;;;;;;;;;;5071634;28;20804;-78
2021/06/16 12:49:59;;;;;;;4.40;3.13;;;;;;;;;;5071230;28;20898;-76
2021/06/16 12:52:28;;;;;;;3.27;2.97;;;;;;;;;;5072577;28;20874;-81
2021/06/16 12:54:54;;;;;;;3.13;2.93;;;;;;;;;;5072599;28;20753;-79
2021/06/16 12:57:21;;;;;;;5.93;3.27;;;;;;;;;;5070980;28;20421;-77
2021/06/16 12:59:52;;;;;;;4.10;3.40;;;;;;;;;;5072938;28;20424;-78
2021/06/16 13:02:27;;;;;;;4.13;3.70;;;;;;;;;;5071598;28;20429;-77
2021/06/16 13:05:01;;;;;;;3.93;3.60;;;;;;;;;;5072632;28;20445;-80
2021/06/16 13:07:46;;;;;;;5.20;2.93;;;;;;;;;;5071121;28;20482;-80
2021/06/16 13:10:17;;;;;;;4.70;3.67;;;;;;;;;;5072410;28;20424;-78
2021/06/16 13:12:54;;;;;;;5.30;3.80;;;;;;;;;;5072403;28;20418;-78
2021/06/16 13:15:21;;;;;;;3.97;3.30;;;;;;;;;;5071067;28;20911;-74
2021/06/16 13:17:51;;;;;;;3.63;3.30;;;;;;;;;;5071880;28;20497;-78
2021/06/16 13:20:32;;;;;;;5.43;3.30;;;;;;;;;;5072031;28;20560;-77
2021/06/16 13:22:59;;;;;;;3.80;3.50;;;;;;;;;;5072121;28;20418;-76
2021/06/16 13:25:30;;;;;;;3.30;3.10;;;;;;;;;;5071984;28;20407;-75
2021/06/16 13:28:00;;;;;;;3.47;2.80;;;;;;;;;;5072230;28;20519;-78
2021/06/16 13:30:42;;;;;;;4.67;3.27;;;;;;;;;;5072894;28;20471;-78
2021/06/16 13:33:11;;;;;;;4.77;3.10;;;;;;;;;;5072987;28;20464;-78
2021/06/16 13:35:41;;;;;;;3.30;3.00;;;;;;;;;;5072180;28;20488;-77
2021/06/16 13:38:07;;;;;;;5.10;3.00;;;;;;;;;;5072214;28;20517;-80
2021/06/16 13:40:33;;;;;;;4.10;3.43;;;;;;;;;;5071296;28;20740;-78
2021/06/16 13:43:01;;;;;;;3.40;3.10;;;;;;;;;;5072113;28;20763;-78
2021/06/16 13:45:29;;;;;;;5.23;3.47;;;;;;;;;;5072181;28;20459;-79
2021/06/16 13:47:56;;;;;;;5.10;3.53;;;;;;;;;;5071825;28;20861;-74
2021/06/16 13:50:23;;;;;;;4.13;3.07;;;;;;;;;;5070160;28;20434;-74
2021/06/16 13:52:50;;;;;;;3.47;3.20;;;;;;;;;;5070080;28;20418;-81
2021/06/16 13:55:16;;;;;;;4.33;3.30;;;;;;;;;;5071079;28;20406;-72
2021/06/16 13:57:42;;;;;;;4.10;3.70;;;;;;;;;;5071247;28;20461;-79
2021/06/16 14:00:09;;;;;;;7.57;3.50;;;;;;;;;;5071830;28;20479;-79
2021/06/16 14:02:35;;;;;;;8.47;3.80;;;;;;;;;;5071637;28;20410;-78
2021/06/16 14:05:02;;;;;;;4.03;3.30;;;;;;;;;;5071464;28;20548;-81
2021/06/16 14:07:30;;;;;;;3.97;3.60;;;;;;;;;;5071275;28;20477;-73
2021/06/16 14:09:57;;;;;;;3.60;3.30;;;;;;;;;;5070309;28;20426;-82
2021/06/16 14:12:23;;;;;;;4.30;3.40;;;;;;;;;;5069747;28;20445;-82
2021/06/16 14:14:49;;;;;;;4.03;3.50;;;;;;;;;;5071058;28;20460;-74
2021/06/16 14:17:15;;;;;;;5.67;3.53;;;;;;;;;;5070812;28;20414;-79
2021/06/16 14:19:42;;;;;;;6.40;3.90;;;;;;;;;;5071127;28;20410;-81
2021/06/16 14:22:09;;;;;;;8.83;3.40;;;;;;;;;;5070689;28;20425;-79
2021/06/16 14:24:35;;;;;;;10.60;3.23;;;;;;;;;;5070801;28;20900;-81
2021/06/16 14:27:01;;;;;;;5.67;3.33;;;;;;;;;;5070919;28;20458;-81
2021/06/16 14:29:27;;;;;;;4.23;3.27;;;;;;;;;;5071048;28;20433;-79
2021/06/16 14:31:53;;;;;;;3.80;3.50;;;;;;;;;;5070850;28;20422;-81
2021/06/16 14:34:19;;;;;;;4.73;3.60;;;;;;;;;;5071384;28;20421;-76
2021/06/16 14:36:45;;;;;;;5.23;3.40;;;;;;;;;;5071201;28;20421;-78
2021/06/16 14:39:14;;;;;;;3.47;3.17;;;;;;;;;;5071544;28;21039;-80
2021/06/16 14:44:43;;;;;;;4.23;3.57;;;;;;;;;;5071604;28;20433;-80
2021/06/16 14:47:09;;;;;;;10.70;4.43;;;;;;;;;;5071286;28;20458;-80
2021/06/16 14:49:35;;;;;;;4.37;3.07;;;;;;;;;;5071243;28;20415;-80
2021/06/16 14:52:01;;;;;;;6.47;4.27;;;;;;;;;;5071450;28;20531;-79
2021/06/16 14:54:27;;;;;;;3.40;3.00;;;;;;;;;;5073243;28;20425;-79
2021/06/16 14:59:57;;;;;;;7.40;3.80;;;;;;;;;;5071680;28;20470;-80
2021/06/16 15:02:23;;;;;;;4.10;3.70;;;;;;;;;;5069710;28;20421;-79
2021/06/16 15:04:49;;;;;;;4.40;3.80;;;;;;;;;;5071554;28;20772;-80
2021/06/16 15:07:15;;;;;;;4.70;3.77;;;;;;;;;;5071801;28;20473;-78
2021/06/16 15:09:49;;;;;;;6.50;4.17;;;;;;;;;;5071999;28;20927;-80
2021/06/16 15:12:15;;;;;;;3.80;3.40;;;;;;;;;;5071902;28;20765;-79
2021/06/16 15:14:41;;;;;;;4.77;3.53;;;;;;;;;;5071651;28;20406;-80
2021/06/16 15:17:11;;;;;;;4.53;3.47;;;;;;;;;;5072691;28;20406;-87
2021/06/16 15:19:41;;;;;;;3.93;3.43;;;;;;;;;;5071626;28;20512;-79
2021/06/16 15:22:07;;;;;;;4.33;3.90;;;;;;;;;;5071345;28;20416;-82
2021/06/16 15:24:36;;;;;;;5.67;4.00;;;;;;;;;;5070051;28;20434;-78
2021/06/16 15:30:06;;;;;;;4.50;3.93;;;;;;;;;;5071264;28;20452;-84
2021/06/16 15:32:36;;;;;;;5.60;3.13;;;;;;;;;;5071136;28;20405;-81
2021/06/16 15:35:11;;;;;;;4.70;3.57;;;;;;;;;;5070202;28;20552;-83
2021/06/16 15:37:40;;;;;;;7.03;4.00;;;;;;;;;;5070614;28;20948;-83
2021/06/16 15:40:08;;;;;;;3.60;3.30;;;;;;;;;;5071346;28;20410;-83
2021/06/16 15:42:40;;;;;;;4.80;3.80;;;;;;;;;;5070676;28;20414;-85
2021/06/16 15:45:07;;;;;;;4.87;3.70;;;;;;;;;;5071168;28;20414;-84
2021/06/16 15:47:39;;;;;;;3.60;3.30;;;;;;;;;;5069559;28;20499;-81
2021/06/16 15:50:06;;;;;;;3.37;3.17;;;;;;;;;;5071059;28;20413;-79
2021/06/16 15:52:36;;;;;;;3.87;3.57;;;;;;;;;;5069781;28;20437;-81
2021/06/16 15:55:06;;;;;;;6.40;4.17;;;;;;;;;;5070894;28;20846;-79
2021/06/16 15:57:32;;;;;;;4.83;4.43;;;;;;;;;;5070820;28;20414;-80
2021/06/16 15:59:58;;;;;;;5.13;4.30;;;;;;;;;;5067440;28;20811;-77
2021/06/16 16:02:28;;;;;;;3.23;3.03;;;;;;;;;;5069437;28;20422;-80
2021/06/16 16:04:55;;;;;;;4.17;3.77;;;;;;;;;;5070604;28;20455;-79
2021/06/16 16:07:21;;;;;;;3.90;3.60;;;;;;;;;;5070019;28;20485;-81
2021/06/16 16:09:47;;;;;;;4.40;3.63;;;;;;;;;;5069966;28;20414;-81
2021/06/16 16:15:20;;;;;;;6.37;3.53;;;;;;;;;;5070834;28;20413;-80
2021/06/16 16:17:47;;;;;;;3.90;3.60;;;;;;;;;;5074108;28;21008;-80
2021/06/16 16:20:16;;;;;;;4.17;3.60;;;;;;;;;;5073286;28;20410;-79